Time;durP1;ratioP1;P1;durP2;ratioP2;P2;SDS_P1;SDS_P2;PMS_P1;PMS_P2;Temp;Humidity;BMP_temperature;BMP_pressure;BME280_temperature;BME280_humidity;BME280_pressure;Samples;Min_cycle;Max_cycle;Signal;HPM_P1;HPM_P2
2022/03/25 00:02:20;;;;;;;25.42;13.73;;;;;;;;;;5024443;28;20021;-86
2022/03/25 00:04:45;;;;;;;31.55;15.30;;;;;;;;;;5028956;28;20053;-90
2022/03/25 00:07:11;;;;;;;32.08;14.45;;;;;;;;;;5017164;28;20018;-85
2022/03/25 00:09:36;;;;;;;33.05;14.48;;;;;;;;;;5017586;28;20021;-88
2022/03/25 00:12:03;;;;;;;34.47;15.00;;;;;;;;;;5018059;28;20056;-89
2022/03/25 00:14:29;;;;;;;27.75;14.80;;;;;;;;;;5017196;28;20072;-85
2022/03/25 00:16:54;;;;;;;28.90;14.38;;;;;;;;;;5017298;28;20475;-88
2022/03/25 00:19:19;;;;;;;31.08;15.20;;;;;;;;;;5017075;28;20566;-89
2022/03/25 00:21:44;;;;;;;28.67;15.70;;;;;;;;;;5019533;28;20458;-86
2022/03/25 00:24:10;;;;;;;30.15;14.90;;;;;;;;;;5018328;28;20075;-84
2022/03/25 00:26:35;;;;;;;37.95;15.23;;;;;;;;;;5019111;28;20022;-84
2022/03/25 00:29:00;;;;;;;31.88;14.93;;;;;;;;;;5018536;28;20022;-90
2022/03/25 00:31:26;;;;;;;33.53;15.20;;;;;;;;;;5018251;28;20029;-89
2022/03/25 00:33:51;;;;;;;28.92;14.73;;;;;;;;;;5018022;28;20101;-84
2022/03/25 00:36:18;;;;;;;31.85;15.30;;;;;;;;;;5013905;28;20025;-83
2022/03/25 00:38:46;;;;;;;26.92;13.00;;;;;;;;;;5013201;28;20010;-79
2022/03/25 00:41:12;;;;;;;32.00;12.80;;;;;;;;;;5013887;28;20026;-82
2022/03/25 00:43:38;;;;;;;28.65;13.82;;;;;;;;;;5013377;28;20067;-84
2022/03/25 00:46:03;;;;;;;37.60;14.55;;;;;;;;;;5012014;28;20021;-81
2022/03/25 00:48:28;;;;;;;25.83;13.25;;;;;;;;;;5011807;28;20468;-80
2022/03/25 00:50:55;;;;;;;25.55;13.35;;;;;;;;;;5011944;28;20026;-81
2022/03/25 00:53:21;;;;;;;26.90;13.38;;;;;;;;;;5011816;28;20419;-80
2022/03/25 00:55:46;;;;;;;26.08;13.43;;;;;;;;;;5012072;28;20076;-81
2022/03/25 00:58:11;;;;;;;26.15;14.10;;;;;;;;;;5013524;28;20014;-82
2022/03/25 01:00:37;;;;;;;32.40;13.60;;;;;;;;;;5015103;28;20021;-80
2022/03/25 01:03:03;;;;;;;32.67;14.70;;;;;;;;;;5013719;28;20064;-79
2022/03/25 01:05:28;;;;;;;37.67;14.27;;;;;;;;;;5011767;28;20018;-79
2022/03/25 01:07:54;;;;;;;36.75;16.20;;;;;;;;;;5011939;28;20026;-80
2022/03/25 01:10:19;;;;;;;31.65;15.55;;;;;;;;;;5011395;28;20464;-82
2022/03/25 01:12:44;;;;;;;26.30;14.40;;;;;;;;;;5011552;28;20598;-82
2022/03/25 01:15:09;;;;;;;34.10;14.75;;;;;;;;;;5011495;28;20038;-81
2022/03/25 01:17:35;;;;;;;29.75;15.18;;;;;;;;;;5011772;28;20105;-80
2022/03/25 01:20:00;;;;;;;29.00;14.65;;;;;;;;;;5010882;28;20034;-80
2022/03/25 01:22:25;;;;;;;30.60;15.13;;;;;;;;;;5011491;28;20423;-81
2022/03/25 01:24:51;;;;;;;25.55;13.77;;;;;;;;;;5011548;28;20030;-80
2022/03/25 01:27:17;;;;;;;26.98;14.20;;;;;;;;;;5011848;28;20033;-80
2022/03/25 01:29:42;;;;;;;26.42;13.40;;;;;;;;;;5011379;28;20109;-81
2022/03/25 01:32:08;;;;;;;32.50;14.07;;;;;;;;;;5010999;28;20121;-78
2022/03/25 01:34:34;;;;;;;28.33;14.02;;;;;;;;;;5011166;28;20020;-80
2022/03/25 01:37:00;;;;;;;27.23;13.13;;;;;;;;;;5014214;28;20108;-79
2022/03/25 01:39:25;;;;;;;30.52;13.68;;;;;;;;;;5011507;28;20109;-77
2022/03/25 01:41:50;;;;;;;38.78;14.65;;;;;;;;;;5011373;28;20022;-78
2022/03/25 01:44:23;;;;;;;42.05;15.98;;;;;;;;;;5011359;28;20050;-80
2022/03/25 01:46:48;;;;;;;28.45;13.85;;;;;;;;;;5010874;28;20493;-78
2022/03/25 01:49:14;;;;;;;28.52;14.57;;;;;;;;;;5011366;28;20028;-80
2022/03/25 01:51:40;;;;;;;36.55;14.82;;;;;;;;;;5010743;28;20490;-81
2022/03/25 01:54:06;;;;;;;27.42;14.63;;;;;;;;;;5011287;28;20026;-79
2022/03/25 01:56:32;;;;;;;29.42;13.30;;;;;;;;;;5010906;28;20041;-79
2022/03/25 01:58:57;;;;;;;26.08;13.93;;;;;;;;;;5011396;28;20018;-78
2022/03/25 02:01:24;;;;;;;32.70;14.07;;;;;;;;;;5013049;28;20105;-83
2022/03/25 02:03:49;;;;;;;35.90;14.13;;;;;;;;;;5014207;28;20105;-85
2022/03/25 02:06:14;;;;;;;29.63;14.27;;;;;;;;;;5014884;28;20025;-83
2022/03/25 02:08:39;;;;;;;30.80;15.52;;;;;;;;;;5014545;28;20427;-82
2022/03/25 02:11:05;;;;;;;35.42;13.65;;;;;;;;;;5014109;28;20025;-84
2022/03/25 02:13:30;;;;;;;28.60;14.13;;;;;;;;;;5014199;28;20096;-85
2022/03/25 02:15:55;;;;;;;26.98;15.35;;;;;;;;;;5014595;28;20018;-87
2022/03/25 02:18:21;;;;;;;34.05;16.50;;;;;;;;;;5014915;28;20057;-83
2022/03/25 02:20:48;;;;;;;36.55;14.80;;;;;;;;;;5013470;28;20037;-85
2022/03/25 02:23:13;;;;;;;28.45;15.18;;;;;;;;;;5014639;28;20033;-82
2022/03/25 02:25:40;;;;;;;30.33;14.95;;;;;;;;;;5018450;28;20018;-84
2022/03/25 02:28:06;;;;;;;38.03;14.80;;;;;;;;;;5021631;28;20100;-84
2022/03/25 02:30:31;;;;;;;28.98;14.63;;;;;;;;;;5017572;28;20111;-84
2022/03/25 02:33:00;;;;;;;34.50;14.55;;;;;;;;;;5022913;28;20065;-86
2022/03/25 02:35:55;;;;;;;32.80;15.20;;;;;;;;;;5016572;28;20018;-85
2022/03/25 02:38:21;;;;;;;28.10;14.80;;;;;;;;;;5003787;28;20030;-83
2022/03/25 02:40:46;;;;;;;31.70;15.18;;;;;;;;;;5016396;28;20022;-83
2022/03/25 02:43:12;;;;;;;27.65;14.13;;;;;;;;;;5016284;28;20026;-86
2022/03/25 02:45:37;;;;;;;32.42;14.63;;;;;;;;;;5015673;28;20411;-84
2022/03/25 02:48:03;;;;;;;26.90;13.00;;;;;;;;;;5016368;28;20017;-84
2022/03/25 02:50:29;;;;;;;28.25;13.93;;;;;;;;;;5016424;28;20018;-84
2022/03/25 02:52:55;;;;;;;26.30;13.70;;;;;;;;;;5015424;28;20386;-84
2022/03/25 02:55:20;;;;;;;27.17;13.95;;;;;;;;;;5014912;28;20500;-82
2022/03/25 02:57:46;;;;;;;26.38;14.02;;;;;;;;;;5015732;28;20026;-83
2022/03/25 03:00:11;;;;;;;29.25;14.35;;;;;;;;;;5023073;28;20401;-83
2022/03/25 03:02:37;;;;;;;26.75;13.45;;;;;;;;;;5015394;28;20065;-83
2022/03/25 03:05:04;;;;;;;24.88;14.13;;;;;;;;;;5021514;28;20056;-83
2022/03/25 03:07:30;;;;;;;26.25;14.32;;;;;;;;;;5015612;28;20069;-87
2022/03/25 03:09:55;;;;;;;28.27;13.20;;;;;;;;;;5010111;28;20089;-86
2022/03/25 03:12:20;;;;;;;25.90;13.95;;;;;;;;;;5001896;28;20069;-85
2022/03/25 03:14:47;;;;;;;28.08;14.10;;;;;;;;;;4999350;28;20558;-82
2022/03/25 03:17:12;;;;;;;33.47;14.30;;;;;;;;;;5012991;28;20033;-83
2022/03/25 03:19:38;;;;;;;29.02;13.90;;;;;;;;;;4997504;28;20027;-82
2022/03/25 03:22:03;;;;;;;30.20;14.20;;;;;;;;;;4998186;28;20026;-84
2022/03/25 03:24:28;;;;;;;25.92;14.00;;;;;;;;;;4998253;28;20069;-85
2022/03/25 03:26:54;;;;;;;23.85;13.23;;;;;;;;;;5011027;28;20033;-85
2022/03/25 03:29:20;;;;;;;27.58;14.00;;;;;;;;;;5020792;28;20018;-82
2022/03/25 03:31:45;;;;;;;34.00;14.07;;;;;;;;;;5018398;28;20033;-83
2022/03/25 03:34:10;;;;;;;54.53;15.48;;;;;;;;;;5018357;28;20053;-83
2022/03/25 03:36:36;;;;;;;26.33;14.45;;;;;;;;;;5018298;28;20021;-83
2022/03/25 03:39:01;;;;;;;31.23;14.05;;;;;;;;;;5023551;28;20026;-85
2022/03/25 03:41:28;;;;;;;29.58;12.90;;;;;;;;;;5025063;28;20037;-85
2022/03/25 03:43:53;;;;;;;28.42;13.23;;;;;;;;;;5015919;28;20010;-83
2022/03/25 03:46:18;;;;;;;26.70;13.20;;;;;;;;;;5014714;28;20052;-84
2022/03/25 03:48:44;;;;;;;36.15;14.50;;;;;;;;;;5019405;28;20014;-84
2022/03/25 03:51:10;;;;;;;28.10;13.27;;;;;;;;;;5019819;28;20030;-85
2022/03/25 03:53:35;;;;;;;30.88;13.00;;;;;;;;;;5019431;28;20090;-85
2022/03/25 03:56:00;;;;;;;27.88;13.40;;;;;;;;;;5019961;28;20037;-84
2022/03/25 03:58:26;;;;;;;32.95;13.80;;;;;;;;;;5021451;28;20030;-86
2022/03/25 04:00:51;;;;;;;33.67;13.73;;;;;;;;;;5020848;28;20018;-83
2022/03/25 04:03:16;;;;;;;26.95;12.93;;;;;;;;;;5020861;28;20022;-82
2022/03/25 04:05:43;;;;;;;32.47;13.95;;;;;;;;;;5022751;28;20022;-85
2022/03/25 04:08:08;;;;;;;32.95;14.93;;;;;;;;;;5023256;28;20112;-84
2022/03/25 04:10:33;;;;;;;26.95;13.93;;;;;;;;;;5022645;28;20475;-87
2022/03/25 04:12:58;;;;;;;26.83;13.68;;;;;;;;;;5022360;28;20058;-83
2022/03/25 04:15:24;;;;;;;34.72;14.07;;;;;;;;;;5032239;28;20108;-83
2022/03/25 04:17:49;;;;;;;29.25;13.45;;;;;;;;;;5029497;28;19998;-84
2022/03/25 04:20:15;;;;;;;24.63;13.77;;;;;;;;;;5029769;28;20117;-83
2022/03/25 04:22:40;;;;;;;31.52;14.40;;;;;;;;;;5030939;28;20028;-84
2022/03/25 04:25:07;;;;;;;30.08;13.40;;;;;;;;;;5031115;28;20010;-86
2022/03/25 04:27:44;;;;;;;31.83;14.20;;;;;;;;;;5031925;28;20022;-84
2022/03/25 04:30:11;;;;;;;30.95;14.65;;;;;;;;;;5034060;28;20006;-85
2022/03/25 04:32:36;;;;;;;34.47;14.63;;;;;;;;;;5032425;28;20025;-85
2022/03/25 04:35:01;;;;;;;30.35;14.18;;;;;;;;;;5031458;28;20494;-84
2022/03/25 04:37:26;;;;;;;29.50;13.88;;;;;;;;;;5047019;28;20033;-88
2022/03/25 04:39:52;;;;;;;30.83;13.88;;;;;;;;;;5032543;28;20534;-87
2022/03/25 04:42:17;;;;;;;25.90;13.40;;;;;;;;;;5032125;28;20085;-84
2022/03/25 04:44:42;;;;;;;34.20;14.13;;;;;;;;;;5032197;28;20021;-86
2022/03/25 04:47:08;;;;;;;30.55;14.00;;;;;;;;;;5031859;28;20041;-86
2022/03/25 04:49:33;;;;;;;30.95;14.23;;;;;;;;;;5032034;28;20014;-85
2022/03/25 04:51:58;;;;;;;32.25;16.20;;;;;;;;;;5031906;28;20029;-81
2022/03/25 04:54:23;;;;;;;31.20;15.48;;;;;;;;;;5032652;28;20045;-86
2022/03/25 04:56:49;;;;;;;37.38;16.00;;;;;;;;;;5033561;28;20052;-86
2022/03/25 04:59:14;;;;;;;34.60;14.07;;;;;;;;;;5031510;28;20029;-87
2022/03/25 05:01:40;;;;;;;33.15;14.40;;;;;;;;;;5031101;28;20036;-87
2022/03/25 05:04:05;;;;;;;32.40;13.88;;;;;;;;;;5029421;28;20014;-86
2022/03/25 05:06:30;;;;;;;34.20;13.80;;;;;;;;;;5032166;28;20021;-83
2022/03/25 05:08:55;;;;;;;29.17;14.60;;;;;;;;;;5032600;28;20045;-85
2022/03/25 05:11:21;;;;;;;37.38;15.38;;;;;;;;;;5033251;28;20052;-87
2022/03/25 05:13:46;;;;;;;26.80;13.48;;;;;;;;;;5032051;28;20041;-85
2022/03/25 05:16:12;;;;;;;34.55;14.00;;;;;;;;;;5031486;28;20014;-86
2022/03/25 05:18:38;;;;;;;34.78;13.60;;;;;;;;;;5031672;28;20026;-86
2022/03/25 05:21:05;;;;;;;38.72;14.63;;;;;;;;;;5031873;28;20532;-84
2022/03/25 05:23:30;;;;;;;30.88;13.52;;;;;;;;;;5035887;28;20030;-83
2022/03/25 05:25:55;;;;;;;30.48;14.07;;;;;;;;;;5032301;28;20013;-84
2022/03/25 05:28:20;;;;;;;29.95;14.60;;;;;;;;;;5032157;28;19999;-85
2022/03/25 05:30:46;;;;;;;33.22;14.35;;;;;;;;;;5031564;28;20026;-84
2022/03/25 05:33:11;;;;;;;32.55;14.57;;;;;;;;;;5030234;28;20030;-88
2022/03/25 05:35:36;;;;;;;31.33;14.10;;;;;;;;;;5030163;28;20041;-85
2022/03/25 05:38:02;;;;;;;31.42;14.40;;;;;;;;;;5029988;28;20093;-88
2022/03/25 05:40:27;;;;;;;41.22;16.75;;;;;;;;;;5032136;28;20018;-82
2022/03/25 05:42:53;;;;;;;37.90;17.33;;;;;;;;;;5025712;28;20011;-89
2022/03/25 05:45:19;;;;;;;41.08;16.55;;;;;;;;;;5028664;28;20018;-85
2022/03/25 05:47:44;;;;;;;27.98;14.60;;;;;;;;;;5032163;28;20017;-86
2022/03/25 05:50:11;;;;;;;37.17;15.10;;;;;;;;;;5033179;28;20005;-84
2022/03/25 05:52:37;;;;;;;33.80;15.50;;;;;;;;;;5024510;28;20033;-87
2022/03/25 05:55:04;;;;;;;35.38;14.77;;;;;;;;;;5025319;28;20018;-84
2022/03/25 05:57:29;;;;;;;32.25;14.73;;;;;;;;;;5018625;28;20037;-81
2022/03/25 05:59:57;;;;;;;28.10;14.27;;;;;;;;;;5017883;28;20022;-84
2022/03/25 06:02:23;;;;;;;31.27;15.25;;;;;;;;;;5014584;28;20025;-77
2022/03/25 06:04:48;;;;;;;30.42;14.35;;;;;;;;;;5017061;28;20029;-78
2022/03/25 06:07:13;;;;;;;30.98;15.55;;;;;;;;;;5015818;28;20065;-76
2022/03/25 06:09:38;;;;;;;31.60;14.38;;;;;;;;;;5014671;28;20373;-84
2022/03/25 06:12:04;;;;;;;32.63;14.13;;;;;;;;;;5021507;28;20041;-81
2022/03/25 06:14:29;;;;;;;30.90;14.30;;;;;;;;;;5026799;28;20100;-85
2022/03/25 06:16:55;;;;;;;34.72;14.45;;;;;;;;;;5027116;28;20030;-85
2022/03/25 06:19:20;;;;;;;28.40;13.68;;;;;;;;;;5041740;28;20018;-85
2022/03/25 06:21:45;;;;;;;31.45;13.63;;;;;;;;;;5036971;28;20029;-85
2022/03/25 06:24:10;;;;;;;26.60;13.02;;;;;;;;;;5025093;28;20021;-87
2022/03/25 06:26:36;;;;;;;26.00;13.60;;;;;;;;;;5024946;28;20026;-84
2022/03/25 06:29:02;;;;;;;35.35;14.52;;;;;;;;;;5032252;28;20113;-81
2022/03/25 06:31:27;;;;;;;33.35;14.25;;;;;;;;;;5039011;28;20026;-85
2022/03/25 06:33:53;;;;;;;33.17;13.73;;;;;;;;;;5037670;28;20052;-85
2022/03/25 06:36:18;;;;;;;37.30;14.18;;;;;;;;;;5034387;28;20490;-88
2022/03/25 06:38:43;;;;;;;30.90;13.50;;;;;;;;;;5027703;28;20024;-82
2022/03/25 06:41:09;;;;;;;33.92;15.00;;;;;;;;;;5031926;28;20072;-85
2022/03/25 06:43:35;;;;;;;38.65;14.65;;;;;;;;;;5050420;28;20017;-87
2022/03/25 06:46:00;;;;;;;35.50;15.27;;;;;;;;;;5040249;28;20014;-83
2022/03/25 06:48:26;;;;;;;31.73;14.55;;;;;;;;;;5048627;28;20013;-81
2022/03/25 06:50:51;;;;;;;30.80;14.65;;;;;;;;;;5048099;28;20006;-83
2022/03/25 06:53:16;;;;;;;34.78;15.80;;;;;;;;;;5046960;28;20063;-84
2022/03/25 06:55:43;;;;;;;36.13;15.82;;;;;;;;;;5050803;28;19993;-82
2022/03/25 06:58:09;;;;;;;32.15;15.50;;;;;;;;;;5053440;28;20394;-85
2022/03/25 07:00:35;;;;;;;28.08;15.10;;;;;;;;;;5041377;28;20017;-83
2022/03/25 07:03:00;;;;;;;33.08;15.70;;;;;;;;;;5043123;28;20021;-89
2022/03/25 07:05:26;;;;;;;29.35;15.30;;;;;;;;;;5041601;28;20022;-86
2022/03/25 07:07:52;;;;;;;30.65;14.77;;;;;;;;;;5045485;28;20022;-86
2022/03/25 07:10:22;;;;;;;31.65;15.10;;;;;;;;;;5047165;28;20048;-86
2022/03/25 07:12:48;;;;;;;31.02;14.95;;;;;;;;;;5047845;28;20083;-84
2022/03/25 07:15:13;;;;;;;30.42;14.85;;;;;;;;;;5046539;28;20017;-89
2022/03/25 07:17:40;;;;;;;38.15;15.70;;;;;;;;;;5045404;28;20030;-86
2022/03/25 07:20:06;;;;;;;29.27;15.73;;;;;;;;;;5017933;28;20534;-88
2022/03/25 07:22:31;;;;;;;32.75;15.00;;;;;;;;;;5014281;28;20122;-79
2022/03/25 07:24:57;;;;;;;31.45;17.50;;;;;;;;;;5015408;28;20015;-85
2022/03/25 07:27:22;;;;;;;28.33;15.15;;;;;;;;;;5014490;28;20089;-87
2022/03/25 07:29:47;;;;;;;30.50;15.20;;;;;;;;;;5016448;28;20025;-85
2022/03/25 07:32:12;;;;;;;29.85;15.50;;;;;;;;;;5016118;28;20299;-89
2022/03/25 07:34:38;;;;;;;30.27;15.20;;;;;;;;;;5016222;28;20022;-81
2022/03/25 07:37:03;;;;;;;33.55;15.88;;;;;;;;;;5015034;28;20122;-81
2022/03/25 07:39:29;;;;;;;34.42;15.25;;;;;;;;;;5013169;28;20014;-82
2022/03/25 07:41:54;;;;;;;34.75;16.15;;;;;;;;;;5014474;28;20081;-85
2022/03/25 07:44:20;;;;;;;33.40;15.77;;;;;;;;;;5014282;28;20041;-82
2022/03/25 07:46:45;;;;;;;27.30;16.33;;;;;;;;;;5015119;28;20057;-83
2022/03/25 07:49:11;;;;;;;26.60;15.27;;;;;;;;;;5015616;28;20013;-84
2022/03/25 07:51:36;;;;;;;32.57;15.73;;;;;;;;;;5018048;28;20015;-74
2022/03/25 07:54:01;;;;;;;32.90;15.93;;;;;;;;;;5018628;28;20288;-83
2022/03/25 07:56:27;;;;;;;27.50;15.77;;;;;;;;;;5015064;28;20287;-83
2022/03/25 07:58:52;;;;;;;34.15;15.77;;;;;;;;;;5016735;28;20022;-87
2022/03/25 08:01:17;;;;;;;30.05;16.45;;;;;;;;;;5031586;28;20094;-82
2022/03/25 08:03:42;;;;;;;40.97;17.60;;;;;;;;;;5010791;28;20037;-86
2022/03/25 08:06:11;;;;;;;39.07;19.27;;;;;;;;;;5016581;28;19995;-86
2022/03/25 08:08:36;;;;;;;43.92;18.75;;;;;;;;;;5017101;28;20256;-87
2022/03/25 08:11:05;;;;;;;31.43;17.03;;;;;;;;;;5018305;28;20031;-92
2022/03/25 08:13:30;;;;;;;30.15;17.65;;;;;;;;;;5018418;28;20288;-82
2022/03/25 08:15:55;;;;;;;39.45;18.75;;;;;;;;;;5017981;28;20026;-84
2022/03/25 08:18:21;;;;;;;34.83;17.02;;;;;;;;;;5018253;28;20017;-78
2022/03/25 08:20:47;;;;;;;38.65;16.95;;;;;;;;;;5016789;28;20022;-88
2022/03/25 08:27:48;;;;;;;39.35;16.92;;;;;;;;;;5018150;28;20029;-82
2022/03/25 08:28:43;;;;;;;28.60;16.10;;;;;;;;;;5018231;28;20033;-90
2022/03/25 08:31:08;;;;;;;31.73;15.70;;;;;;;;;;5018317;28;20046;-88
2022/03/25 08:33:34;;;;;;;30.83;16.87;;;;;;;;;;5018271;28;20017;-86
2022/03/25 08:35:59;;;;;;;26.67;15.00;;;;;;;;;;5016806;28;20011;-86
2022/03/25 08:38:24;;;;;;;28.57;15.50;;;;;;;;;;5016129;28;20033;-88
2022/03/25 08:40:49;;;;;;;31.77;16.60;;;;;;;;;;5017687;28;20061;-88
2022/03/25 08:43:15;;;;;;;36.47;16.17;;;;;;;;;;5016985;28;20280;-84
2022/03/25 08:45:40;;;;;;;28.70;16.65;;;;;;;;;;5016594;28;20026;-85
2022/03/25 08:48:05;;;;;;;25.10;15.27;;;;;;;;;;5016911;28;20019;-88
2022/03/25 08:50:30;;;;;;;25.83;14.87;;;;;;;;;;5017138;28;20062;-90
2022/03/25 08:52:56;;;;;;;31.08;15.45;;;;;;;;;;5016980;28;20275;-86
2022/03/25 08:55:22;;;;;;;23.35;15.13;;;;;;;;;;5017114;28;20095;-88
2022/03/25 08:57:47;;;;;;;24.65;16.73;;;;;;;;;;5017178;28;20082;-88
2022/03/25 09:00:14;;;;;;;30.75;14.70;;;;;;;;;;5017658;28;20049;-87
2022/03/25 09:02:43;;;;;;;31.40;16.08;;;;;;;;;;5017625;28;20013;-80
2022/03/25 09:05:09;;;;;;;30.45;16.73;;;;;;;;;;5017619;28;20034;-87
2022/03/25 09:07:36;;;;;;;29.67;15.85;;;;;;;;;;5017650;28;20026;-90
2022/03/25 09:10:01;;;;;;;28.55;15.13;;;;;;;;;;5016998;28;20107;-86
2022/03/25 09:12:27;;;;;;;26.38;14.95;;;;;;;;;;5024014;28;20033;-89
2022/03/25 09:14:52;;;;;;;36.27;16.30;;;;;;;;;;5036390;28;20061;-87
2022/03/25 09:17:17;;;;;;;23.83;15.40;;;;;;;;;;5041750;28;20064;-86
2022/03/25 09:19:43;;;;;;;27.70;15.40;;;;;;;;;;5047869;28;20322;-90
2022/03/25 09:22:08;;;;;;;26.08;14.73;;;;;;;;;;5032974;28;20286;-84
2022/03/25 09:24:33;;;;;;;26.85;16.33;;;;;;;;;;5038771;28;20022;-89
2022/03/25 09:26:59;;;;;;;23.23;14.50;;;;;;;;;;5035311;28;20057;-91
2022/03/25 09:29:25;;;;;;;26.83;14.40;;;;;;;;;;5033590;28;20271;-88
2022/03/25 09:31:50;;;;;;;30.98;15.45;;;;;;;;;;5029032;28;20287;-89
2022/03/25 09:36:59;;;;;;;28.65;14.60;;;;;;;;;;5044221;28;20024;-85
2022/03/25 09:39:24;;;;;;;20.95;13.93;;;;;;;;;;5046012;28;20009;-86
2022/03/25 09:41:50;;;;;;;22.97;14.40;;;;;;;;;;5040977;28;20051;-88
2022/03/25 09:44:28;;;;;;;23.13;13.32;;;;;;;;;;5045119;28;20028;-86
2022/03/25 09:46:53;;;;;;;21.52;13.20;;;;;;;;;;5039484;28;20004;-76
2022/03/25 09:49:20;;;;;;;23.23;14.67;;;;;;;;;;5039488;28;20030;-83
2022/03/25 09:51:45;;;;;;;23.75;14.90;;;;;;;;;;5037189;28;20515;-88
2022/03/25 09:54:14;;;;;;;23.35;13.65;;;;;;;;;;5037613;28;20014;-85
2022/03/25 09:56:40;;;;;;;37.30;13.82;;;;;;;;;;5039197;28;20060;-87
2022/03/25 09:59:06;;;;;;;21.38;14.75;;;;;;;;;;5040858;28;20006;-85
2022/03/25 10:01:32;;;;;;;20.02;13.70;;;;;;;;;;5039105;28;20030;-87
2022/03/25 10:03:57;;;;;;;24.42;14.23;;;;;;;;;;5037048;28;20060;-87
2022/03/25 10:06:23;;;;;;;24.95;14.88;;;;;;;;;;5037563;28;20044;-86
2022/03/25 10:08:58;;;;;;;18.90;15.13;;;;;;;;;;5037590;28;20013;-90
2022/03/25 10:11:23;;;;;;;19.10;15.38;;;;;;;;;;5040313;28;20009;-90
2022/03/25 10:14:09;;;;;;;26.47;15.13;;;;;;;;;;5041078;28;20045;-75
2022/03/25 10:16:34;;;;;;;;;;;;;;;;;;5040244;28;20272;-85
2022/03/25 10:18:59;;;;;;;24.38;14.90;;;;;;;;;;5040080;28;19959;-81
2022/03/25 10:21:25;;;;;;;24.05;15.35;;;;;;;;;;5039648;28;20026;-83
2022/03/25 10:23:50;;;;;;;23.83;15.13;;;;;;;;;;5039020;28;20080;-85
2022/03/25 10:26:15;;;;;;;22.13;14.93;;;;;;;;;;5037336;28;20335;-86
2022/03/25 10:28:42;;;;;;;20.55;13.85;;;;;;;;;;5037419;28;20018;-88
2022/03/25 10:31:15;;;;;;;20.83;14.77;;;;;;;;;;5038554;28;20029;-89
2022/03/25 10:33:46;;;;;;;20.52;13.13;;;;;;;;;;5035114;28;20025;-86
2022/03/25 10:36:14;;;;;;;21.48;14.35;;;;;;;;;;5035723;28;20026;-83
2022/03/25 10:38:45;;;;;;;23.67;14.10;;;;;;;;;;5039487;28;20082;-81
2022/03/25 10:41:12;;;;;;;23.45;14.27;;;;;;;;;;5037567;28;20054;-85
2022/03/25 10:43:47;;;;;;;22.25;14.23;;;;;;;;;;5032248;28;20049;-85
2022/03/25 10:46:31;;;;;;;24.45;14.05;;;;;;;;;;5015145;28;20010;-86
2022/03/25 10:48:58;;;;;;;22.92;14.20;;;;;;;;;;5014909;28;20018;-80
2022/03/25 10:51:23;;;;;;;23.20;14.68;;;;;;;;;;5011001;28;20036;-82
2022/03/25 10:53:55;;;;;;;21.10;13.93;;;;;;;;;;5013055;28;20034;-83
2022/03/25 10:56:20;;;;;;;22.67;14.27;;;;;;;;;;5016946;28;20002;-87
2022/03/25 10:58:53;;;;;;;25.42;15.77;;;;;;;;;;5016123;28;20039;-87
2022/03/25 11:01:19;;;;;;;23.25;14.70;;;;;;;;;;5017953;28;20049;-86
2022/03/25 11:03:44;;;;;;;28.00;15.20;;;;;;;;;;5019263;28;19999;-83
2022/03/25 11:06:14;;;;;;;22.40;14.90;;;;;;;;;;5017129;28;20022;-85
2022/03/25 11:08:39;;;;;;;21.17;14.50;;;;;;;;;;5016747;28;20025;-83
2022/03/25 11:11:05;;;;;;;24.20;15.75;;;;;;;;;;5011845;28;20046;-82
2022/03/25 11:13:30;;;;;;;20.42;15.35;;;;;;;;;;5017572;28;20056;-82
2022/03/25 11:15:56;;;;;;;23.77;15.35;;;;;;;;;;5036559;28;20014;-85
2022/03/25 11:18:21;;;;;;;24.95;15.38;;;;;;;;;;5035978;28;20022;-90
2022/03/25 11:20:47;;;;;;;22.60;15.00;;;;;;;;;;5038134;28;20009;-88
2022/03/25 11:23:15;;;;;;;24.75;14.13;;;;;;;;;;5033569;28;20026;-86
2022/03/25 11:25:48;;;;;;;24.13;15.15;;;;;;;;;;5042277;28;20064;-85
2022/03/25 11:28:16;;;;;;;27.67;14.50;;;;;;;;;;5057567;28;20014;-85
2022/03/25 11:30:42;;;;;;;22.25;15.05;;;;;;;;;;5050843;28;20033;-82
2022/03/25 11:33:07;;;;;;;27.17;15.60;;;;;;;;;;5035450;28;20034;-78
2022/03/25 11:35:41;;;;;;;25.65;15.55;;;;;;;;;;5033211;28;20029;-85
2022/03/25 11:38:12;;;;;;;20.50;14.43;;;;;;;;;;5037548;28;20105;-84
2022/03/25 11:40:39;;;;;;;23.52;14.07;;;;;;;;;;5033517;28;20029;-84
2022/03/25 11:43:28;;;;;;;25.88;14.60;;;;;;;;;;5035130;28;20022;-83
2022/03/25 11:45:59;;;;;;;22.83;14.93;;;;;;;;;;5042028;28;20022;-87
2022/03/25 11:48:24;;;;;;;23.23;14.40;;;;;;;;;;5058159;28;20012;-89
2022/03/25 11:50:50;;;;;;;25.65;14.95;;;;;;;;;;5058509;28;20005;-86
2022/03/25 11:53:15;;;;;;;24.02;14.63;;;;;;;;;;5056152;28;20033;-86
2022/03/25 11:55:54;;;;;;;25.53;14.27;;;;;;;;;;5037302;28;20033;-86
2022/03/25 11:58:20;;;;;;;23.48;15.02;;;;;;;;;;5035331;28;20248;-82
2022/03/25 12:00:48;;;;;;;20.05;14.60;;;;;;;;;;5048687;28;20065;-83
2022/03/25 12:03:14;;;;;;;21.05;14.27;;;;;;;;;;5047710;28;20022;-85
2022/03/25 12:05:55;;;;;;;23.10;14.55;;;;;;;;;;5046865;28;20005;-85
2022/03/25 12:08:21;;;;;;;21.27;14.38;;;;;;;;;;5032400;28;20034;-86
2022/03/25 12:10:49;;;;;;;28.08;15.00;;;;;;;;;;5045400;28;20025;-87
2022/03/25 12:13:15;;;;;;;28.23;14.40;;;;;;;;;;5038296;28;20014;-82
2022/03/25 12:15:45;;;;;;;26.80;15.43;;;;;;;;;;5032369;28;20062;-84
2022/03/25 12:18:29;;;;;;;21.05;13.63;;;;;;;;;;5030404;28;20026;-85
2022/03/25 12:20:54;;;;;;;24.83;15.07;;;;;;;;;;5012874;28;20026;-87
2022/03/25 12:23:19;;;;;;;21.98;14.60;;;;;;;;;;5017528;28;20083;-81
2022/03/25 12:25:45;;;;;;;21.10;14.37;;;;;;;;;;5011042;28;20447;-81
2022/03/25 12:28:10;;;;;;;23.65;14.73;;;;;;;;;;5006950;28;20252;-82
2022/03/25 12:30:36;;;;;;;26.88;15.23;;;;;;;;;;5016759;28;20019;-81
2022/03/25 12:33:08;;;;;;;22.45;15.02;;;;;;;;;;5008709;28;20030;-80
2022/03/25 12:35:35;;;;;;;20.58;14.38;;;;;;;;;;5026865;28;20061;-76
2022/03/25 12:38:17;;;;;;;24.13;15.30;;;;;;;;;;5039783;28;20021;-80
2022/03/25 12:40:43;;;;;;;20.40;14.15;;;;;;;;;;5019850;28;20489;-75
2022/03/25 12:43:11;;;;;;;21.45;14.68;;;;;;;;;;5013593;28;20028;-74
2022/03/25 12:45:46;;;;;;;22.65;13.15;;;;;;;;;;5017098;28;20022;-74
2022/03/25 12:48:16;;;;;;;26.65;13.32;;;;;;;;;;5011899;28;20513;-79
2022/03/25 12:50:45;;;;;;;18.98;12.90;;;;;;;;;;5018408;28;20493;-75
2022/03/25 12:53:11;;;;;;;20.55;12.20;;;;;;;;;;5016829;28;20025;-77
2022/03/25 12:55:36;;;;;;;25.60;14.43;;;;;;;;;;5017530;28;20066;-76
2022/03/25 12:58:12;;;;;;;21.73;13.93;;;;;;;;;;5011736;28;20065;-75
2022/03/25 13:00:48;;;;;;;22.70;14.57;;;;;;;;;;5021897;28;20894;-76
2022/03/25 13:03:13;;;;;;;21.92;13.75;;;;;;;;;;5018078;28;20053;-75
2022/03/25 13:05:39;;;;;;;18.75;13.98;;;;;;;;;;5025588;28;20052;-76
2022/03/25 13:08:05;;;;;;;24.02;13.98;;;;;;;;;;5009764;28;20352;-74
2022/03/25 13:10:31;;;;;;;22.20;14.45;;;;;;;;;;5009908;28;20863;-77
2022/03/25 13:12:59;;;;;;;21.50;13.23;;;;;;;;;;5010956;28;20029;-75
2022/03/25 13:15:26;;;;;;;29.67;14.75;;;;;;;;;;5015497;28;20046;-75
2022/03/25 13:17:52;;;;;;;22.75;13.50;;;;;;;;;;5020622;28;20021;-74
2022/03/25 13:20:19;;;;;;;23.65;13.43;;;;;;;;;;5013012;28;20109;-78
2022/03/25 13:22:54;;;;;;;18.08;13.23;;;;;;;;;;5013609;28;20018;-78
2022/03/25 13:25:46;;;;;;;19.77;12.68;;;;;;;;;;5014594;28;20033;-78
2022/03/25 13:28:16;;;;;;;21.40;12.63;;;;;;;;;;5009363;28;20553;-80
2022/03/25 13:30:43;;;;;;;18.80;13.30;;;;;;;;;;5018049;28;20099;-77
2022/03/25 13:33:10;;;;;;;18.35;12.02;;;;;;;;;;5023153;28;20036;-80
2022/03/25 13:35:41;;;;;;;29.98;14.98;;;;;;;;;;5034951;28;20018;-82
2022/03/25 13:38:08;;;;;;;25.75;13.23;;;;;;;;;;5022263;28;20017;-77
2022/03/25 13:40:33;;;;;;;19.08;12.80;;;;;;;;;;5015155;28;20075;-76
2022/03/25 13:43:00;;;;;;;26.25;13.15;;;;;;;;;;5014268;28;20014;-77
2022/03/25 13:45:25;;;;;;;22.45;13.60;;;;;;;;;;5018794;28;20025;-74
2022/03/25 13:48:01;;;;;;;22.75;14.50;;;;;;;;;;5016448;28;20785;-76
2022/03/25 13:50:26;;;;;;;;;;;;;;;;;;5015734;28;20010;-74
2022/03/25 13:52:55;;;;;;;19.35;12.80;;;;;;;;;;5009535;28;19918;-76
2022/03/25 13:55:29;;;;;;;23.08;13.65;;;;;;;;;;5016972;28;20064;-85
2022/03/25 13:57:59;;;;;;;29.38;14.73;;;;;;;;;;5020185;28;20383;-76
2022/03/25 14:00:36;;;;;;;22.95;13.27;;;;;;;;;;5016421;28;20032;-80
2022/03/25 14:03:02;;;;;;;19.23;13.00;;;;;;;;;;5022507;28;20022;-82
2022/03/25 14:05:30;;;;;;;20.42;13.20;;;;;;;;;;5026767;28;20044;-80
2022/03/25 14:07:57;;;;;;;24.20;14.65;;;;;;;;;;5029366;28;20022;-85
2022/03/25 14:10:22;;;;;;;20.83;13.25;;;;;;;;;;5025270;28;20021;-80
2022/03/25 14:12:54;;;;;;;21.77;15.43;;;;;;;;;;5010789;28;20033;-75
2022/03/25 14:15:23;;;;;;;21.80;14.43;;;;;;;;;;5023194;28;20033;-79
2022/03/25 14:17:50;;;;;;;22.23;15.27;;;;;;;;;;5030763;28;20052;-80
2022/03/25 14:20:16;;;;;;;23.10;14.25;;;;;;;;;;5029484;28;20018;-82
2022/03/25 14:22:44;;;;;;;28.17;14.15;;;;;;;;;;5035608;28;20002;-84